Terminal Aerodrome Forecast
Issued by NWS Jackson, MS

Home | Current Version | Previous Version | Text Only | Print | Product List | Glossary On
Versions: 1 2 3 4 5 6 7 8 9 10 11 12 13
135
FTUS44 KJAN 241353 AAB
TAFJAN
TAF AMD
KJAN 241353Z 2414/2512 31005KT P6SM SCT015 BKN025
     FM250000 32005KT P6SM SCT025 BKN040
     FM250900 33003KT 3SM BR SCT005 SCT250=

USA.gov is the U.S. government's official web portal to all federal, state and local government web resources and services.